sensor_id;sensor_type;location;lat;lon;timestamp;pressure;altitude;pressure_sealevel;temperature;humidity
71976;BME280;68326;52.124;5.424;2023-04-29T00:00:05;101493.97;;;9.72;100.00
71976;BME280;68326;52.124;5.424;2023-04-29T00:02:32;101493.28;;;9.67;100.00
71976;BME280;68326;52.124;5.424;2023-04-29T00:04:59;101502.03;;;9.65;100.00
71976;BME280;68326;52.124;5.424;2023-04-29T00:07:26;101502.16;;;9.62;100.00
71976;BME280;68326;52.124;5.424;2023-04-29T00:09:52;101503.94;;;9.59;100.00
71976;BME280;68326;52.124;5.424;2023-04-29T00:12:19;101502.09;;;9.63;100.00
71976;BME280;68326;52.124;5.424;2023-04-29T00:14:46;101501.22;;;9.63;100.00
71976;BME280;68326;52.124;5.424;2023-04-29T00:17:12;101506.53;;;9.59;100.00
71976;BME280;68326;52.124;5.424;2023-04-29T00:19:39;101504.00;;;9.58;100.00
71976;BME280;68326;52.124;5.424;2023-04-29T00:22:06;101503.91;;;9.61;100.00
71976;BME280;68326;52.124;5.424;2023-04-29T00:24:32;101501.31;;;9.61;100.00
71976;BME280;68326;52.124;5.424;2023-04-29T00:26:59;101504.75;;;9.62;100.00
71976;BME280;68326;52.124;5.424;2023-04-29T00:29:27;101515.97;;;9.62;100.00
71976;BME280;68326;52.124;5.424;2023-04-29T00:31:54;101516.78;;;9.64;100.00
71976;BME280;68326;52.124;5.424;2023-04-29T00:34:20;101521.00;;;9.67;100.00
71976;BME280;68326;52.124;5.424;2023-04-29T00:36:47;101521.00;;;9.67;100.00
71976;BME280;68326;52.124;5.424;2023-04-29T00:39:14;101524.56;;;9.64;100.00
71976;BME280;68326;52.124;5.424;2023-04-29T00:41:40;101518.53;;;9.64;100.00
71976;BME280;68326;52.124;5.424;2023-04-29T00:44:07;101530.69;;;9.63;100.00
71976;BME280;68326;52.124;5.424;2023-04-29T00:46:35;101525.56;;;9.60;100.00
71976;BME280;68326;52.124;5.424;2023-04-29T00:49:02;101538.69;;;9.57;100.00
71976;BME280;68326;52.124;5.424;2023-04-29T00:51:29;101534.34;;;9.57;100.00
71976;BME280;68326;52.124;5.424;2023-04-29T00:53:56;101538.66;;;9.58;100.00
71976;BME280;68326;52.124;5.424;2023-04-29T00:56:22;101532.53;;;9.59;100.00
71976;BME280;68326;52.124;5.424;2023-04-29T00:58:50;101541.13;;;9.62;100.00
71976;BME280;68326;52.124;5.424;2023-04-29T01:01:18;101539.50;;;9.59;100.00
71976;BME280;68326;52.124;5.424;2023-04-29T01:03:45;101542.94;;;9.59;100.00
71976;BME280;68326;52.124;5.424;2023-04-29T01:14:20;101551.63;;;9.58;100.00
71976;BME280;68326;52.124;5.424;2023-04-29T01:16:55;101555.13;;;9.57;100.00
71976;BME280;68326;52.124;5.424;2023-04-29T01:21:54;101565.72;;;9.51;100.00
71976;BME280;68326;52.124;5.424;2023-04-29T01:24:20;101575.44;;;9.46;100.00
71976;BME280;68326;52.124;5.424;2023-04-29T01:27:00;101570.16;;;9.48;100.00
71976;BME280;68326;52.124;5.424;2023-04-29T01:29:36;101566.81;;;9.46;100.00
71976;BME280;68326;52.124;5.424;2023-04-29T01:32:09;101566.69;;;9.49;100.00
71976;BME280;68326;52.124;5.424;2023-04-29T01:34:50;101576.06;;;9.53;100.00
71976;BME280;68326;52.124;5.424;2023-04-29T01:42:38;101574.22;;;9.56;100.00
71976;BME280;68326;52.124;5.424;2023-04-29T01:45:07;101578.50;;;9.57;100.00
71976;BME280;68326;52.124;5.424;2023-04-29T01:47:36;101581.06;;;9.59;100.00
71976;BME280;68326;52.124;5.424;2023-04-29T01:50:04;101574.94;;;9.60;100.00
71976;BME280;68326;52.124;5.424;2023-04-29T01:52:31;101580.09;;;9.62;100.00
71976;BME280;68326;52.124;5.424;2023-04-29T01:54:57;101586.25;;;9.59;100.00
71976;BME280;68326;52.124;5.424;2023-04-29T01:57:24;101580.09;;;9.62;100.00
71976;BME280;68326;52.124;5.424;2023-04-29T01:59:50;101582.75;;;9.60;100.00
71976;BME280;68326;52.124;5.424;2023-04-29T02:02:17;101589.75;;;9.58;100.00
71976;BME280;68326;52.124;5.424;2023-04-29T02:04:46;101594.13;;;9.56;100.00
71976;BME280;68326;52.124;5.424;2023-04-29T02:07:13;101589.66;;;9.61;100.00
71976;BME280;68326;52.124;5.424;2023-04-29T02:09:40;101593.22;;;9.58;100.00
71976;BME280;68326;52.124;5.424;2023-04-29T02:12:06;101597.50;;;9.59;100.00
71976;BME280;68326;52.124;5.424;2023-04-29T02:14:33;101599.09;;;9.64;100.00
71976;BME280;68326;52.124;5.424;2023-04-29T02:17:03;101599.13;;;9.62;100.00
71976;BME280;68326;52.124;5.424;2023-04-29T02:19:29;101602.56;;;9.63;100.00
71976;BME280;68326;52.124;5.424;2023-04-29T02:21:56;101600.03;;;9.61;100.00
71976;BME280;68326;52.124;5.424;2023-04-29T02:24:22;101604.28;;;9.64;100.00
71976;BME280;68326;52.124;5.424;2023-04-29T02:26:49;101615.56;;;9.63;100.00
71976;BME280;68326;52.124;5.424;2023-04-29T02:29:15;101612.75;;;9.69;100.00
71976;BME280;68326;52.124;5.424;2023-04-29T02:31:41;101615.44;;;9.67;99.96
71976;BME280;68326;52.124;5.424;2023-04-29T02:34:08;101618.91;;;9.66;100.00
71976;BME280;68326;52.124;5.424;2023-04-29T02:36:34;101617.13;;;9.68;100.00
71976;BME280;68326;52.124;5.424;2023-04-29T02:39:01;101620.47;;;9.72;99.54
71976;BME280;68326;52.124;5.424;2023-04-29T02:41:27;101624.75;;;9.73;99.62
71976;BME280;68326;52.124;5.424;2023-04-29T02:43:54;101627.47;;;9.70;99.94
71976;BME280;68326;52.124;5.424;2023-04-29T02:46:20;101634.41;;;9.69;99.60
71976;BME280;68326;52.124;5.424;2023-04-29T02:48:47;101631.63;;;9.75;100.00
71976;BME280;68326;52.124;5.424;2023-04-29T02:51:13;101641.84;;;9.80;98.60
71976;BME280;68326;52.124;5.424;2023-04-29T02:53:39;101635.72;;;9.81;99.18
71976;BME280;68326;52.124;5.424;2023-04-29T02:56:06;101641.91;;;9.78;99.89
71976;BME280;68326;52.124;5.424;2023-04-29T02:58:32;101643.75;;;9.75;99.03
71976;BME280;68326;52.124;5.424;2023-04-29T03:00:59;101639.41;;;9.75;99.32
71976;BME280;68326;52.124;5.424;2023-04-29T03:03:26;101645.25;;;9.82;99.78
71976;BME280;68326;52.124;5.424;2023-04-29T03:05:52;101649.50;;;9.85;99.64
71976;BME280;68326;52.124;5.424;2023-04-29T03:08:19;101652.88;;;9.87;99.44
71976;BME280;68326;52.124;5.424;2023-04-29T03:10:45;101657.16;;;9.88;99.40
71976;BME280;68326;52.124;5.424;2023-04-29T03:13:11;101660.63;;;9.88;99.11
71976;BME280;68326;52.124;5.424;2023-04-29T03:15:38;101660.47;;;9.93;98.66
71976;BME280;68326;52.124;5.424;2023-04-29T03:18:04;101666.50;;;9.93;98.03
71976;BME280;68326;52.124;5.424;2023-04-29T03:20:31;101665.84;;;9.88;97.63
71976;BME280;68326;52.124;5.424;2023-04-29T03:22:58;101670.13;;;9.89;98.52
71976;BME280;68326;52.124;5.424;2023-04-29T03:25:26;101674.34;;;9.92;96.98
71976;BME280;68326;52.124;5.424;2023-04-29T03:27:53;101676.16;;;9.90;97.58
71976;BME280;68326;52.124;5.424;2023-04-29T03:30:20;101672.75;;;9.88;96.38
71976;BME280;68326;52.124;5.424;2023-04-29T03:32:46;101679.84;;;9.84;96.75
71976;BME280;68326;52.124;5.424;2023-04-29T03:35:13;101675.44;;;9.86;96.91
71976;BME280;68326;52.124;5.424;2023-04-29T03:37:41;101671.88;;;9.89;96.37
71976;BME280;68326;52.124;5.424;2023-04-29T03:40:12;101670.88;;;9.93;97.19
71976;BME280;68326;52.124;5.424;2023-04-29T03:42:38;101674.47;;;9.89;95.17
71976;BME280;68326;52.124;5.424;2023-04-29T03:45:05;101678.91;;;9.85;95.03
71976;BME280;68326;52.124;5.424;2023-04-29T03:47:32;101680.72;;;9.83;94.88
71976;BME280;68326;52.124;5.424;2023-04-29T03:49:58;101689.28;;;9.87;95.60
71976;BME280;68326;52.124;5.424;2023-04-29T03:52:25;101687.44;;;9.90;95.14
71976;BME280;68326;52.124;5.424;2023-04-29T03:54:52;101691.66;;;9.93;95.00
71976;BME280;68326;52.124;5.424;2023-04-29T03:57:18;101688.38;;;9.88;93.62
71976;BME280;68326;52.124;5.424;2023-04-29T03:59:44;101693.69;;;9.85;93.47
71976;BME280;68326;52.124;5.424;2023-04-29T04:02:15;101695.22;;;9.90;93.11
71976;BME280;68326;52.124;5.424;2023-04-29T04:04:42;101696.91;;;9.91;93.33
71976;BME280;68326;52.124;5.424;2023-04-29T04:07:09;101696.00;;;9.92;92.46
71976;BME280;68326;52.124;5.424;2023-04-29T04:09:36;101699.63;;;9.88;93.14
71976;BME280;68326;52.124;5.424;2023-04-29T04:12:03;101704.97;;;9.84;93.03
71976;BME280;68326;52.124;5.424;2023-04-29T04:14:31;101705.72;;;9.87;93.69
71976;BME280;68326;52.124;5.424;2023-04-29T04:16:58;101707.47;;;9.87;92.31
71976;BME280;68326;52.124;5.424;2023-04-29T04:19:24;101718.72;;;9.87;92.76
71976;BME280;68326;52.124;5.424;2023-04-29T04:21:52;101714.50;;;9.83;92.29
71976;BME280;68326;52.124;5.424;2023-04-29T04:24:18;101714.63;;;9.80;92.13
71976;BME280;68326;52.124;5.424;2023-04-29T04:26:45;101713.91;;;9.75;91.88
71976;BME280;68326;52.124;5.424;2023-04-29T04:29:11;101714.78;;;9.75;92.23
71976;BME280;68326;52.124;5.424;2023-04-29T04:31:38;101719.13;;;9.75;90.66
71976;BME280;68326;52.124;5.424;2023-04-29T04:34:04;101711.28;;;9.76;91.02
71976;BME280;68326;52.124;5.424;2023-04-29T04:36:31;101711.28;;;9.76;91.23
71976;BME280;68326;52.124;5.424;2023-04-29T04:38:57;101723.28;;;9.80;90.88
71976;BME280;68326;52.124;5.424;2023-04-29T04:41:24;101725.88;;;9.80;91.41
71976;BME280;68326;52.124;5.424;2023-04-29T04:43:51;101724.97;;;9.82;92.03
71976;BME280;68326;52.124;5.424;2023-04-29T04:46:17;101740.56;;;9.82;91.93
71976;BME280;68326;52.124;5.424;2023-04-29T04:48:44;101740.56;;;9.82;91.52
71976;BME280;68326;52.124;5.424;2023-04-29T04:51:12;101746.56;;;9.84;92.05
71976;BME280;68326;52.124;5.424;2023-04-29T04:53:39;101746.50;;;9.85;92.02
71976;BME280;68326;52.124;5.424;2023-04-29T04:56:06;101756.06;;;9.85;91.94
71976;BME280;68326;52.124;5.424;2023-04-29T04:58:32;101764.75;;;9.84;92.17
71976;BME280;68326;52.124;5.424;2023-04-29T05:00:59;101759.47;;;9.87;92.49
71976;BME280;68326;52.124;5.424;2023-04-29T05:03:26;101761.28;;;9.85;92.08
71976;BME280;68326;52.124;5.424;2023-04-29T05:05:57;101769.75;;;9.90;92.59
71976;BME280;68326;52.124;5.424;2023-04-29T05:08:24;101767.94;;;9.92;92.32
71976;BME280;68326;52.124;5.424;2023-04-29T05:10:51;101776.50;;;9.95;92.30
71976;BME280;68326;52.124;5.424;2023-04-29T05:13:19;101777.47;;;9.93;92.29
71976;BME280;68326;52.124;5.424;2023-04-29T05:15:46;101777.19;;;10.00;92.39
71976;BME280;68326;52.124;5.424;2023-04-29T05:18:12;101782.28;;;10.05;92.63
71976;BME280;68326;52.124;5.424;2023-04-29T05:20:39;101783.00;;;10.09;92.66
71976;BME280;68326;52.124;5.424;2023-04-29T05:23:06;101780.31;;;10.12;91.62
71976;BME280;68326;52.124;5.424;2023-04-29T05:25:32;101781.19;;;10.11;91.84
71976;BME280;68326;52.124;5.424;2023-04-29T05:27:58;101787.16;;;10.14;92.38
71976;BME280;68326;52.124;5.424;2023-04-29T05:30:25;101787.97;;;10.16;92.23
71976;BME280;68326;52.124;5.424;2023-04-29T05:32:52;101786.84;;;10.24;92.95
71976;BME280;68326;52.124;5.424;2023-04-29T05:35:18;101791.97;;;10.27;92.33
71976;BME280;68326;52.124;5.424;2023-04-29T05:37:45;101798.00;;;10.27;92.00
71976;BME280;68326;52.124;5.424;2023-04-29T05:40:11;101797.97;;;10.29;91.64
71976;BME280;68326;52.124;5.424;2023-04-29T05:42:38;101804.00;;;10.31;91.91
71976;BME280;68326;52.124;5.424;2023-04-29T05:45:05;101803.88;;;10.34;92.00
71976;BME280;68326;52.124;5.424;2023-04-29T05:47:31;101807.31;;;10.34;92.08
71976;BME280;68326;52.124;5.424;2023-04-29T05:49:58;101812.53;;;10.34;92.22
71976;BME280;68326;52.124;5.424;2023-04-29T05:52:24;101806.47;;;10.34;91.71
71976;BME280;68326;52.124;5.424;2023-04-29T05:54:51;101811.63;;;10.35;91.39
71976;BME280;68326;52.124;5.424;2023-04-29T05:57:17;101815.84;;;10.39;92.11
71976;BME280;68326;52.124;5.424;2023-04-29T05:59:44;101817.44;;;10.44;91.55
71976;BME280;68326;52.124;5.424;2023-04-29T06:02:10;101823.44;;;10.46;91.36
71976;BME280;68326;52.124;5.424;2023-04-29T06:04:37;101830.31;;;10.47;91.34
71976;BME280;68326;52.124;5.424;2023-04-29T06:07:07;101830.16;;;10.51;91.67
71976;BME280;68326;52.124;5.424;2023-04-29T06:09:35;101830.91;;;10.55;91.69
71976;BME280;68326;52.124;5.424;2023-04-29T06:12:01;101836.91;;;10.57;91.83
71976;BME280;68326;52.124;5.424;2023-04-29T06:14:28;101849.72;;;10.63;91.95
71976;BME280;68326;52.124;5.424;2023-04-29T06:16:55;101851.50;;;10.63;91.10
71976;BME280;68326;52.124;5.424;2023-04-29T06:19:21;101847.94;;;10.65;92.15
71976;BME280;68326;52.124;5.424;2023-04-29T06:21:48;101856.41;;;10.70;91.46
71976;BME280;68326;52.124;5.424;2023-04-29T06:24:14;101852.72;;;10.77;92.82
71976;BME280;68326;52.124;5.424;2023-04-29T06:26:41;101859.66;;;10.77;91.84
71976;BME280;68326;52.124;5.424;2023-04-29T06:29:07;101864.00;;;10.76;92.02
71976;BME280;68326;52.124;5.424;2023-04-29T06:31:33;101866.66;;;10.75;91.65
71976;BME280;68326;52.124;5.424;2023-04-29T06:34:00;101867.63;;;10.72;91.06
71976;BME280;68326;52.124;5.424;2023-04-29T06:36:27;101859.94;;;10.69;91.10
71976;BME280;68326;52.124;5.424;2023-04-29T06:38:53;101869.34;;;10.73;90.40
71976;BME280;68326;52.124;5.424;2023-04-29T06:41:20;101870.19;;;10.74;90.28
71976;BME280;68326;52.124;5.424;2023-04-29T06:43:46;101878.47;;;10.85;91.70
71976;BME280;68326;52.124;5.424;2023-04-29T06:46:14;101880.06;;;10.89;90.81
71976;BME280;68326;52.124;5.424;2023-04-29T06:48:40;101897.41;;;10.90;91.20
71976;BME280;68326;52.124;5.424;2023-04-29T06:51:07;101905.75;;;10.98;90.39
71976;BME280;68326;52.124;5.424;2023-04-29T06:53:33;101904.66;;;11.06;91.05
71976;BME280;68326;52.124;5.424;2023-04-29T06:56:00;101902.09;;;11.04;90.08
71976;BME280;68326;52.124;5.424;2023-04-29T06:58:26;101908.28;;;11.01;88.65
71976;BME280;68326;52.124;5.424;2023-04-29T07:00:53;101910.75;;;11.05;88.91
71976;BME280;68326;52.124;5.424;2023-04-29T07:03:19;101917.34;;;11.15;88.42
71976;BME280;68326;52.124;5.424;2023-04-29T07:05:46;101912.19;;;11.13;87.59
71976;BME280;68326;52.124;5.424;2023-04-29T07:08:13;101917.75;;;11.28;86.91
71976;BME280;68326;52.124;5.424;2023-04-29T07:10:40;101921.13;;;11.31;87.12
71976;BME280;68326;52.124;5.424;2023-04-29T07:13:06;101926.91;;;11.39;86.28
71976;BME280;68326;52.124;5.424;2023-04-29T07:15:34;101924.69;;;11.29;86.17
71976;BME280;68326;52.124;5.424;2023-04-29T07:18:03;101928.19;;;11.28;86.23
71976;BME280;68326;52.124;5.424;2023-04-29T07:20:30;101933.13;;;11.35;86.28
71976;BME280;68326;52.124;5.424;2023-04-29T07:22:57;101925.72;;;11.48;85.44
71976;BME280;68326;52.124;5.424;2023-04-29T07:25:25;101941.94;;;11.56;85.61
71976;BME280;68326;52.124;5.424;2023-04-29T07:27:52;101941.94;;;11.56;84.44
71976;BME280;68326;52.124;5.424;2023-04-29T07:30:18;101944.41;;;11.59;83.78
71976;BME280;68326;52.124;5.424;2023-04-29T07:32:44;101942.81;;;11.55;83.15
71976;BME280;68326;52.124;5.424;2023-04-29T07:35:11;101950.59;;;11.57;84.42
71976;BME280;68326;52.124;5.424;2023-04-29T07:37:37;101952.06;;;11.64;83.15
71976;BME280;68326;52.124;5.424;2023-04-29T07:40:04;101960.63;;;11.68;83.33
71976;BME280;68326;52.124;5.424;2023-04-29T07:42:31;101960.75;;;11.65;81.88
71976;BME280;68326;52.124;5.424;2023-04-29T07:44:58;101957.44;;;11.59;82.79
71976;BME280;68326;52.124;5.424;2023-04-29T07:47:24;101960.00;;;11.61;83.75
71976;BME280;68326;52.124;5.424;2023-04-29T07:49:51;101963.22;;;11.68;82.03
71976;BME280;68326;52.124;5.424;2023-04-29T07:52:17;101961.16;;;11.77;82.55
71976;BME280;68326;52.124;5.424;2023-04-29T07:54:44;101969.69;;;12.04;81.25
71976;BME280;68326;52.124;5.424;2023-04-29T07:57:10;101974.72;;;12.33;80.74
71976;BME280;68326;52.124;5.424;2023-04-29T07:59:37;101972.63;;;12.41;78.32
71976;BME280;68326;52.124;5.424;2023-04-29T08:02:03;101975.84;;;12.48;77.92
71976;BME280;68326;52.124;5.424;2023-04-29T08:04:30;101979.03;;;12.76;78.43
71976;BME280;68326;52.124;5.424;2023-04-29T08:06:57;101978.59;;;12.87;76.35
71976;BME280;68326;52.124;5.424;2023-04-29T08:09:23;101987.59;;;13.00;75.52
71976;BME280;68326;52.124;5.424;2023-04-29T08:11:50;101987.91;;;13.13;74.53
71976;BME280;68326;52.124;5.424;2023-04-29T08:14:16;101983.63;;;13.12;73.03
71976;BME280;68326;52.124;5.424;2023-04-29T08:16:42;101988.00;;;13.32;73.57
71976;BME280;68326;52.124;5.424;2023-04-29T08:19:09;101996.63;;;13.55;73.27
71976;BME280;68326;52.124;5.424;2023-04-29T08:21:36;101993.03;;;13.76;74.64
71976;BME280;68326;52.124;5.424;2023-04-29T08:24:03;101992.50;;;13.89;72.51
71976;BME280;68326;52.124;5.424;2023-04-29T08:26:30;101996.38;;;13.80;70.83
71976;BME280;68326;52.124;5.424;2023-04-29T08:28:57;101990.81;;;13.48;71.39
71976;BME280;68326;52.124;5.424;2023-04-29T08:31:23;101996.50;;;13.17;71.56
71976;BME280;68326;52.124;5.424;2023-04-29T08:33:51;102005.09;;;12.98;72.32
71976;BME280;68326;52.124;5.424;2023-04-29T08:36:17;102008.44;;;12.81;72.39
71976;BME280;68326;52.124;5.424;2023-04-29T08:38:44;101999.94;;;12.76;72.79
71976;BME280;68326;52.124;5.424;2023-04-29T08:41:10;102003.72;;;12.90;71.40
71976;BME280;68326;52.124;5.424;2023-04-29T08:43:37;101996.72;;;13.33;72.82
71976;BME280;68326;52.124;5.424;2023-04-29T08:46:06;102001.09;;;13.72;71.07
71976;BME280;68326;52.124;5.424;2023-04-29T08:48:33;102001.47;;;14.02;69.73
71976;BME280;68326;52.124;5.424;2023-04-29T08:51:02;102005.84;;;14.01;70.86
71976;BME280;68326;52.124;5.424;2023-04-29T08:53:29;102014.06;;;14.13;69.99
71976;BME280;68326;52.124;5.424;2023-04-29T08:55:57;102007.41;;;14.05;69.34
71976;BME280;68326;52.124;5.424;2023-04-29T08:58:27;102013.25;;;13.54;68.89
71976;BME280;68326;52.124;5.424;2023-04-29T09:00:55;102014.63;;;13.42;69.96
71976;BME280;68326;52.124;5.424;2023-04-29T09:03:53;102015.72;;;13.36;70.41
71976;BME280;68326;52.124;5.424;2023-04-29T09:06:22;102018.63;;;13.08;71.46
71976;BME280;68326;52.124;5.424;2023-04-29T09:08:49;102029.41;;;13.00;71.64
71976;BME280;68326;52.124;5.424;2023-04-29T09:11:15;102021.50;;;13.02;71.24
71976;BME280;68326;52.124;5.424;2023-04-29T09:13:42;102019.41;;;12.90;71.29
71976;BME280;68326;52.124;5.424;2023-04-29T09:16:12;102031.25;;;13.19;72.08
71976;BME280;68326;52.124;5.424;2023-04-29T09:18:46;102030.44;;;13.39;70.31
71976;BME280;68326;52.124;5.424;2023-04-29T09:21:13;102028.25;;;13.69;72.10
71976;BME280;68326;52.124;5.424;2023-04-29T09:23:40;102033.59;;;14.05;72.32
71976;BME280;68326;52.124;5.424;2023-04-29T09:26:07;102039.53;;;14.09;68.45
71976;BME280;68326;52.124;5.424;2023-04-29T09:28:34;102035.69;;;13.97;68.95
71976;BME280;68326;52.124;5.424;2023-04-29T09:31:01;102040.16;;;14.33;68.07
71976;BME280;68326;52.124;5.424;2023-04-29T09:33:31;102038.28;;;14.73;67.93
71976;BME280;68326;52.124;5.424;2023-04-29T09:35:58;102043.97;;;15.00;65.82
71976;BME280;68326;52.124;5.424;2023-04-29T09:38:24;102035.44;;;15.13;66.06
71976;BME280;68326;52.124;5.424;2023-04-29T09:40:51;102040.63;;;15.14;63.78
71976;BME280;68326;52.124;5.424;2023-04-29T09:43:25;102046.03;;;15.28;64.71
71976;BME280;68326;52.124;5.424;2023-04-29T09:45:52;102050.75;;;15.22;64.19
71976;BME280;68326;52.124;5.424;2023-04-29T09:48:19;102048.94;;;14.87;63.97
71976;BME280;68326;52.124;5.424;2023-04-29T09:50:59;102048.63;;;14.76;65.31
71976;BME280;68326;52.124;5.424;2023-04-29T09:53:29;102058.56;;;15.04;65.99
71976;BME280;68326;52.124;5.424;2023-04-29T09:55:58;102057.81;;;15.37;63.21
71976;BME280;68326;52.124;5.424;2023-04-29T09:58:33;102054.22;;;15.05;62.80
71976;BME280;68326;52.124;5.424;2023-04-29T10:01:03;102056.75;;;14.70;63.43
71976;BME280;68326;52.124;5.424;2023-04-29T10:03:35;102052.66;;;14.83;63.45
71976;BME280;68326;52.124;5.424;2023-04-29T10:06:06;102053.19;;;15.07;63.26
71976;BME280;68326;52.124;5.424;2023-04-29T10:08:33;102047.81;;;15.28;63.01
71976;BME280;68326;52.124;5.424;2023-04-29T10:11:01;102050.94;;;15.52;61.35
71976;BME280;68326;52.124;5.424;2023-04-29T10:13:29;102047.47;;;15.85;62.07
71976;BME280;68326;52.124;5.424;2023-04-29T10:16:02;102046.88;;;16.13;61.97
71976;BME280;68326;52.124;5.424;2023-04-29T10:18:35;102051.59;;;16.22;61.64
71976;BME280;68326;52.124;5.424;2023-04-29T10:21:06;102051.06;;;15.66;60.59
71976;BME280;68326;52.124;5.424;2023-04-29T10:23:35;102057.66;;;15.05;62.66
71976;BME280;68326;52.124;5.424;2023-04-29T10:26:02;102062.06;;;15.05;62.71
71976;BME280;68326;52.124;5.424;2023-04-29T10:28:30;102063.44;;;15.64;63.94
71976;BME280;68326;52.124;5.424;2023-04-29T10:31:00;102063.88;;;16.06;61.41
71976;BME280;68326;52.124;5.424;2023-04-29T10:33:31;102058.97;;;16.16;61.34
71976;BME280;68326;52.124;5.424;2023-04-29T10:35:59;102067.50;;;16.19;59.84
71976;BME280;68326;52.124;5.424;2023-04-29T10:38:30;102062.28;;;16.35;59.43
71976;BME280;68326;52.124;5.424;2023-04-29T10:41:01;102067.63;;;16.18;58.43
71976;BME280;68326;52.124;5.424;2023-04-29T10:43:30;102063.56;;;15.79;59.24
71976;BME280;68326;52.124;5.424;2023-04-29T10:48:57;102064.38;;;15.97;60.22
71976;BME280;68326;52.124;5.424;2023-04-29T10:51:44;102072.19;;;15.98;60.23
71976;BME280;68326;52.124;5.424;2023-04-29T10:54:15;102068.63;;;16.31;60.46
71976;BME280;68326;52.124;5.424;2023-04-29T10:56:46;102065.59;;;16.07;59.60
71976;BME280;68326;52.124;5.424;2023-04-29T11:01:54;102061.69;;;15.98;59.13
71976;BME280;68326;52.124;5.424;2023-04-29T11:04:21;102071.44;;;15.79;60.49
71976;BME280;68326;52.124;5.424;2023-04-29T11:06:55;102059.16;;;15.62;60.50
71976;BME280;68326;52.124;5.424;2023-04-29T11:09:30;102058.50;;;15.58;59.75
71976;BME280;68326;52.124;5.424;2023-04-29T11:12:03;102064.91;;;15.53;61.90
71976;BME280;68326;52.124;5.424;2023-04-29T11:14:34;102071.22;;;15.99;60.81
71976;BME280;68326;52.124;5.424;2023-04-29T11:17:13;102058.22;;;15.80;59.17
71976;BME280;68326;52.124;5.424;2023-04-29T11:19:50;102068.47;;;16.18;60.23
71976;BME280;68326;52.124;5.424;2023-04-29T11:27:17;102073.47;;;16.55;58.15
71976;BME280;68326;52.124;5.424;2023-04-29T11:29:44;102066.38;;;16.41;57.96
71976;BME280;68326;52.124;5.424;2023-04-29T11:32:12;102068.97;;;16.73;58.12
71976;BME280;68326;52.124;5.424;2023-04-29T11:34:38;102063.91;;;17.00;56.81
71976;BME280;68326;52.124;5.424;2023-04-29T11:37:05;102066.16;;;17.22;56.86
71976;BME280;68326;52.124;5.424;2023-04-29T11:39:34;102065.13;;;17.24;54.71
71976;BME280;68326;52.124;5.424;2023-04-29T11:42:05;102074.63;;;17.27;57.39
71976;BME280;68326;52.124;5.424;2023-04-29T11:44:35;102072.06;;;17.11;56.79
71976;BME280;68326;52.124;5.424;2023-04-29T11:47:06;102065.31;;;16.75;55.83
71976;BME280;68326;52.124;5.424;2023-04-29T11:49:33;102079.75;;;16.84;56.50
71976;BME280;68326;52.124;5.424;2023-04-29T11:52:00;102068.34;;;16.99;56.60
71976;BME280;68326;52.124;5.424;2023-04-29T11:54:28;102058.66;;;17.44;56.02
71976;BME280;68326;52.124;5.424;2023-04-29T11:56:56;102072.97;;;17.55;52.17
71976;BME280;68326;52.124;5.424;2023-04-29T11:59:23;102071.19;;;17.55;53.19
71976;BME280;68326;52.124;5.424;2023-04-29T12:01:50;102075.22;;;17.46;53.54
71976;BME280;68326;52.124;5.424;2023-04-29T12:04:17;102077.97;;;17.45;54.81
71976;BME280;68326;52.124;5.424;2023-04-29T12:06:45;102075.78;;;17.37;54.79
71976;BME280;68326;52.124;5.424;2023-04-29T12:09:11;102073.91;;;17.53;54.07
71976;BME280;68326;52.124;5.424;2023-04-29T12:11:38;102080.06;;;17.68;54.30
71976;BME280;68326;52.124;5.424;2023-04-29T12:14:05;102069.34;;;17.86;53.74
71976;BME280;68326;52.124;5.424;2023-04-29T12:16:32;102062.56;;;17.82;53.77
71976;BME280;68326;52.124;5.424;2023-04-29T12:18:59;102067.66;;;17.85;52.31
71976;BME280;68326;52.124;5.424;2023-04-29T12:21:26;102073.16;;;17.51;53.29
71976;BME280;68326;52.124;5.424;2023-04-29T12:23:53;102067.53;;;17.58;52.35
71976;BME280;68326;52.124;5.424;2023-04-29T12:26:27;102059.91;;;17.82;53.24
71976;BME280;68326;52.124;5.424;2023-04-29T12:28:53;102062.38;;;17.99;51.35
71976;BME280;68326;52.124;5.424;2023-04-29T12:31:22;102066.34;;;17.92;54.50
71976;BME280;68326;52.124;5.424;2023-04-29T12:33:52;102063.59;;;17.65;52.94
71976;BME280;68326;52.124;5.424;2023-04-29T12:36:19;102063.22;;;17.12;55.51
71976;BME280;68326;52.124;5.424;2023-04-29T12:38:46;102068.69;;;16.77;53.70
71976;BME280;68326;52.124;5.424;2023-04-29T12:41:13;102071.16;;;16.96;54.13
71976;BME280;68326;52.124;5.424;2023-04-29T12:43:42;102069.84;;;17.33;54.75
71976;BME280;68326;52.124;5.424;2023-04-29T12:46:12;102070.41;;;17.53;54.90
71976;BME280;68326;52.124;5.424;2023-04-29T12:48:39;102071.84;;;17.59;53.83
71976;BME280;68326;52.124;5.424;2023-04-29T12:51:08;102080.59;;;17.45;55.31
71976;BME280;68326;52.124;5.424;2023-04-29T12:53:36;102075.44;;;17.58;55.05
71976;BME280;68326;52.124;5.424;2023-04-29T12:56:02;102081.34;;;17.47;54.42
71976;BME280;68326;52.124;5.424;2023-04-29T12:58:29;102084.22;;;17.28;54.39
71976;BME280;68326;52.124;5.424;2023-04-29T13:00:56;102076.00;;;17.18;52.52
71976;BME280;68326;52.124;5.424;2023-04-29T13:03:23;102076.91;;;17.03;55.38
71976;BME280;68326;52.124;5.424;2023-04-29T13:05:53;102085.91;;;16.99;56.71
71976;BME280;68326;52.124;5.424;2023-04-29T13:08:20;102079.28;;;16.76;55.48
71976;BME280;68326;52.124;5.424;2023-04-29T13:10:46;102088.81;;;16.62;56.75
71976;BME280;68326;52.124;5.424;2023-04-29T13:13:13;102080.31;;;16.89;55.37
71976;BME280;68326;52.124;5.424;2023-04-29T13:15:39;102088.66;;;17.42;56.48
71976;BME280;68326;52.124;5.424;2023-04-29T13:18:06;102091.03;;;17.75;54.73
71976;BME280;68326;52.124;5.424;2023-04-29T13:20:33;102086.50;;;17.34;54.70